Wetterstation Vordersexau
Wetterdaten: Woche 20.08.18 - 26.08.18 (KW34)
Datum Zeit Temp. A. Feuchte A. Luftdruck Regen Wind Richtung Taupunkt Windchill Windben
20.08.2018 00:00 18,9 C 73 % 1017,6 hPa 0,0 l/m 0,0 km/h O-NO 13,9 C 18,9 C 0,0 km/h
20.08.2018 01:00 17,9 C 75 % 1017,4 hPa 0,0 l/m 0,0 km/h O-NO 13,4 C 17,9 C 0,0 km/h
20.08.2018 02:00 17,4 C 77 % 1017,3 hPa 0,0 l/m 0,0 km/h O 13,3 C 17,4 C 0,0 km/h
20.08.2018 03:00 17,2 C 77 % 1017,4 hPa 0,0 l/m 0,0 km/h O 13,1 C 17,2 C 0,0 km/h
20.08.2018 04:00 16,8 C 77 % 1017,4 hPa 0,0 l/m 0,0 km/h O 12,7 C 16,8 C 0,0 km/h
20.08.2018 05:00 16,1 C 78 % 1017,4 hPa 0,0 l/m 0,0 km/h O-SO 12,3 C 16,1 C 0,0 km/h
20.08.2018 06:00 15,9 C 79 % 1017,3 hPa 0,0 l/m 0,0 km/h O-NO 12,3 C 15,9 C 0,0 km/h
20.08.2018 07:00 16,8 C 79 % 1017,4 hPa 0,0 l/m 0,0 km/h O 13,1 C 16,8 C 0,0 km/h
20.08.2018 08:00 19,8 C 72 % 1017,8 hPa 0,0 l/m 0,0 km/h W-SW 14,6 C 19,8 C 0,0 km/h
20.08.2018 09:00 21,8 C 68 % 1017,9 hPa 0,0 l/m 0,0 km/h W 15,6 C 21,8 C 0,0 km/h
20.08.2018 10:00 24,3 C 60 % 1017,4 hPa 0,0 l/m 0,0 km/h W 16,0 C 24,3 C 0,0 km/h
20.08.2018 11:00 26,1 C 54 % 1017,4 hPa 0,0 l/m 0,0 km/h W-NW 16,0 C 26,1 C 0,0 km/h
20.08.2018 12:00 27,5 C 48 % 1017,2 hPa 0,0 l/m 0,0 km/h SO 15,5 C 27,5 C 0,0 km/h
20.08.2018 13:00 28,3 C 44 % 1016,7 hPa 0,0 l/m 0,0 km/h S-SO 14,9 C 28,3 C 0,0 km/h
20.08.2018 14:00 29,3 C 40 % 1016,0 hPa 0,0 l/m 0,0 km/h NW 14,3 C 29,3 C 0,0 km/h
20.08.2018 15:00 29,9 C 38 % 1015,7 hPa 0,0 l/m 8,4 km/h N-NW 14,0 C 29,7 C 4,7 km/h
20.08.2018 16:00 30,3 C 39 % 1015,2 hPa 0,0 l/m 14,3 km/h W-NW 14,8 C 29,8 C 7,9 km/h
20.08.2018 17:00 30,2 C 39 % 1014,9 hPa 0,0 l/m 0,0 km/h N-NO 14,7 C 30,2 C 0,0 km/h
20.08.2018 18:00 30,1 C 42 % 1014,7 hPa 0,0 l/m 0,0 km/h N 15,7 C 30,1 C 0,0 km/h
20.08.2018 19:00 27,8 C 48 % 1014,9 hPa 0,0 l/m 1,3 km/h N-NO 15,8 C 27,8 C 0,7 km/h
20.08.2018 20:00 25,9 C 53 % 1015,8 hPa 0,0 l/m 0,0 km/h N-NO 15,6 C 25,9 C 0,0 km/h
20.08.2018 21:00 23,1 C 60 % 1016,3 hPa 0,0 l/m 0,0 km/h N-NO 14,9 C 23,1 C 0,0 km/h
20.08.2018 22:00 21,4 C 67 % 1016,7 hPa 0,0 l/m 0,0 km/h N-NO 15,0 C 21,4 C 0,0 km/h
20.08.2018 23:00 20,7 C 70 % 1017,0 hPa 0,0 l/m 0,0 km/h N-NO 15,0 C 20,7 C 0,0 km/h
21.08.2018 00:00 19,6 C 73 % 1017,1 hPa 0,0 l/m 0,0 km/h N-NO 14,6 C 19,6 C 0,0 km/h
21.08.2018 01:00 18,9 C 75 % 1017,3 hPa 0,0 l/m 0,0 km/h N-NO 14,4 C 18,9 C 0,0 km/h
21.08.2018 02:00 18,4 C 77 % 1017,0 hPa 0,0 l/m 0,0 km/h O-NO 14,3 C 18,4 C 0,0 km/h
21.08.2018 03:00 17,8 C 79 % 1016,6 hPa 0,0 l/m 0,0 km/h O-NO 14,1 C 17,8 C 0,0 km/h
21.08.2018 04:00 17,4 C 80 % 1016,5 hPa 0,0 l/m 0,0 km/h NO 13,9 C 17,4 C 0,0 km/h
21.08.2018 05:00 16,8 C 81 % 1016,6 hPa 0,0 l/m 0,0 km/h NO 13,5 C 16,8 C 0,0 km/h
21.08.2018 06:00 16,4 C 81 % 1016,8 hPa 0,0 l/m 0,0 km/h O-NO 13,1 C 16,4 C 0,0 km/h
21.08.2018 07:00 17,3 C 82 % 1017,0 hPa 0,0 l/m 0,0 km/h NO 14,2 C 17,3 C 0,0 km/h
21.08.2018 08:00 19,8 C 78 % 1017,0 hPa 0,0 l/m 0,0 km/h SW 15,8 C 19,8 C 0,0 km/h
21.08.2018 09:00 21,8 C 75 % 1017,0 hPa 0,0 l/m 0,0 km/h W 17,2 C 21,8 C 0,0 km/h
21.08.2018 10:00 24,4 C 65 % 1016,7 hPa 0,0 l/m 0,0 km/h NW 17,4 C 24,4 C 0,0 km/h
21.08.2018 11:00 26,5 C 60 % 1016,3 hPa 0,0 l/m 0,0 km/h NW 18,1 C 26,5 C 0,0 km/h
21.08.2018 12:00 28,1 C 54 % 1016,0 hPa 0,0 l/m 1,3 km/h NW 17,9 C 28,1 C 0,7 km/h
21.08.2018 13:00 29,4 C 51 % 1015,4 hPa 0,0 l/m 9,7 km/h NW 18,2 C 29,1 C 5,4 km/h
21.08.2018 14:00 30,7 C 47 % 1014,8 hPa 0,0 l/m 18,8 km/h NW 18,1 C 30,1 C 10,4 km/h
21.08.2018 15:00 30,9 C 45 % 1014,1 hPa 0,0 l/m 13,0 km/h N 17,6 C 30,5 C 7,2 km/h
21.08.2018 16:00 31,3 C 43 % 1013,9 hPa 0,0 l/m 7,1 km/h NW 17,2 C 31,3 C 4,0 km/h
21.08.2018 17:00 31,6 C 42 % 1013,6 hPa 0,0 l/m 10,4 km/h N-NW 17,1 C 31,4 C 5,8 km/h
21.08.2018 18:00 31,5 C 41 % 1013,5 hPa 0,0 l/m 8,4 km/h N-NW 16,6 C 31,4 C 4,7 km/h
21.08.2018 19:00 29,6 C 43 % 1013,6 hPa 0,0 l/m 0,0 km/h N-NW 15,7 C 29,6 C 0,0 km/h
21.08.2018 20:00 26,7 C 52 % 1013,9 hPa 0,0 l/m 0,0 km/h O-SO 16,0 C 26,7 C 0,0 km/h
21.08.2018 21:00 24,1 C 60 % 1014,7 hPa 0,0 l/m 0,0 km/h SO 15,8 C 24,1 C 0,0 km/h
21.08.2018 22:00 23,4 C 63 % 1014,6 hPa 0,0 l/m 0,0 km/h SO 15,9 C 23,4 C 0,0 km/h
21.08.2018 23:00 22,4 C 67 % 1014,4 hPa 0,0 l/m 0,0 km/h SO 16,0 C 22,4 C 0,0 km/h
22.08.2018 00:00 21,9 C 69 % 1014,6 hPa 0,0 l/m 0,0 km/h O 15,9 C 21,9 C 0,0 km/h
22.08.2018 01:00 20,8 C 72 % 1014,3 hPa 0,0 l/m 0,0 km/h O 15,6 C 20,8 C 0,0 km/h
22.08.2018 02:00 19,8 C 74 % 1014,1 hPa 0,0 l/m 0,0 km/h O 15,0 C 19,8 C 0,0 km/h
22.08.2018 03:00 18,7 C 77 % 1014,1 hPa 0,0 l/m 0,0 km/h O 14,6 C 18,7 C 0,0 km/h
22.08.2018 04:00 18,1 C 79 % 1014,0 hPa 0,0 l/m 0,0 km/h O 14,4 C 18,1 C 0,0 km/h
22.08.2018 05:00 17,6 C 79 % 1014,3 hPa 0,0 l/m 0,0 km/h O 13,9 C 17,6 C 0,0 km/h
22.08.2018 06:00 17,3 C 80 % 1014,6 hPa 0,0 l/m 0,0 km/h O-SO 13,8 C 17,3 C 0,0 km/h
22.08.2018 07:00 17,9 C 81 % 1014,9 hPa 0,0 l/m 0,0 km/h O-SO 14,6 C 17,9 C 0,0 km/h
22.08.2018 08:00 21,4 C 75 % 1015,1 hPa 0,0 l/m 0,0 km/h N-NW 16,8 C 21,4 C 0,0 km/h
22.08.2018 09:00 23,6 C 68 % 1014,8 hPa 0,0 l/m 0,0 km/h SW 17,3 C 23,6 C 0,0 km/h
22.08.2018 10:00 26,4 C 60 % 1014,8 hPa 0,0 l/m 0,0 km/h S-SO 18,0 C 26,4 C 0,0 km/h
22.08.2018 11:00 28,4 C 55 % 1014,5 hPa 0,0 l/m 0,0 km/h NW 18,5 C 28,4 C 0,0 km/h
22.08.2018 12:00 29,8 C 50 % 1013,9 hPa 0,0 l/m 7,1 km/h W 18,2 C 29,7 C 4,0 km/h
22.08.2018 13:00 31,4 C 43 % 1013,3 hPa 0,0 l/m 0,0 km/h O-SO 17,3 C 31,4 C 0,0 km/h
22.08.2018 14:00 31,4 C 42 % 1013,3 hPa 0,0 l/m 3,2 km/h S-SO 16,9 C 31,4 C 1,8 km/h
22.08.2018 15:00 32,8 C 39 % 1012,6 hPa 0,0 l/m 4,5 km/h N-NW 17,0 C 32,8 C 2,5 km/h
22.08.2018 16:00 31,9 C 40 % 1011,9 hPa 0,0 l/m 0,0 km/h N-NW 16,6 C 31,9 C 0,0 km/h
22.08.2018 17:00 33,2 C 36 % 1011,6 hPa 0,0 l/m 0,0 km/h N-NW 16,1 C 33,2 C 0,0 km/h
22.08.2018 18:00 33,6 C 34 % 1011,5 hPa 0,0 l/m 1,9 km/h N-NW 15,5 C 33,6 C 1,1 km/h
22.08.2018 19:00 30,9 C 38 % 1011,9 hPa 0,0 l/m 0,0 km/h N-NW 14,9 C 30,9 C 0,0 km/h
22.08.2018 20:00 27,1 C 49 % 1012,4 hPa 0,0 l/m 0,0 km/h N 15,4 C 27,1 C 0,0 km/h
22.08.2018 21:00 24,7 C 55 % 1012,7 hPa 0,0 l/m 0,0 km/h O-NO 15,0 C 24,7 C 0,0 km/h
22.08.2018 22:00 23,3 C 59 % 1012,9 hPa 0,0 l/m 0,0 km/h O-NO 14,8 C 23,3 C 0,0 km/h
22.08.2018 23:00 21,8 C 65 % 1013,0 hPa 0,0 l/m 0,0 km/h O 14,9 C 21,8 C 0,0 km/h
23.08.2018 00:00 21,1 C 67 % 1013,0 hPa 0,0 l/m 0,0 km/h O 14,7 C 21,1 C 0,0 km/h
23.08.2018 01:00 20,5 C 70 % 1012,9 hPa 0,0 l/m 1,3 km/h SO 14,8 C 20,5 C 0,7 km/h
23.08.2018 02:00 20,1 C 71 % 1012,8 hPa 0,0 l/m 0,0 km/h O-NO 14,7 C 20,1 C 0,0 km/h
23.08.2018 03:00 19,8 C 73 % 1012,3 hPa 0,0 l/m 0,0 km/h SO 14,8 C 19,8 C 0,0 km/h
23.08.2018 04:00 19,9 C 72 % 1012,4 hPa 0,0 l/m 0,0 km/h O 14,7 C 19,9 C 0,0 km/h
23.08.2018 05:00 19,3 C 75 % 1011,9 hPa 0,0 l/m 0,0 km/h O-SO 14,8 C 19,3 C 0,0 km/h
23.08.2018 06:00 18,6 C 77 % 1012,1 hPa 0,0 l/m 0,0 km/h O-SO 14,5 C 18,6 C 0,0 km/h
23.08.2018 07:00 18,5 C 78 % 1012,4 hPa 0,0 l/m 0,0 km/h O-SO 14,6 C 18,5 C 0,0 km/h
23.08.2018 08:00 21,8 C 73 % 1012,4 hPa 0,0 l/m 0,0 km/h SO 16,7 C 21,8 C 0,0 km/h
23.08.2018 09:00 25,0 C 64 % 1012,2 hPa 0,0 l/m 0,0 km/h S 17,7 C 25,0 C 0,0 km/h
23.08.2018 10:00 26,9 C 56 % 1012,1 hPa 0,0 l/m 9,7 km/h W-SW 17,4 C 26,3 C 5,4 km/h
23.08.2018 11:00 28,5 C 52 % 1012,0 hPa 0,0 l/m 14,9 km/h NW 17,7 C 27,6 C 8,3 km/h
23.08.2018 12:00 29,8 C 48 % 1011,5 hPa 0,0 l/m 0,0 km/h N 17,6 C 29,8 C 0,0 km/h
23.08.2018 13:00 29,8 C 45 % 1010,9 hPa 0,0 l/m 0,0 km/h W 16,6 C 29,8 C 0,0 km/h
23.08.2018 14:00 30,2 C 40 % 1010,7 hPa 0,0 l/m 11,7 km/h N-NW 15,1 C 29,8 C 6,5 km/h
23.08.2018 15:00 30,5 C 40 % 1010,1 hPa 0,0 l/m 13,6 km/h NW 15,3 C 30,0 C 7,6 km/h
23.08.2018 16:00 31,1 C 41 % 1009,3 hPa 0,0 l/m 0,0 km/h W-SW 16,3 C 31,1 C 0,0 km/h
23.08.2018 17:00 32,0 C 37 % 1008,5 hPa 0,0 l/m 8,4 km/h NW 15,5 C 31,9 C 4,7 km/h
23.08.2018 18:00 31,3 C 38 % 1008,4 hPa 0,0 l/m 0,0 km/h N-NO 15,3 C 31,3 C 0,0 km/h
23.08.2018 19:00 21,6 C 66 % 1010,6 hPa 3,1 l/m 9,7 km/h O-SO 15,0 C 20,5 C 5,4 km/h
23.08.2018 20:00 18,4 C 81 % 1011,1 hPa 4,7 l/m 0,0 km/h NO 15,1 C 18,4 C 0,0 km/h
23.08.2018 21:00 18,1 C 81 % 1010,6 hPa 0,0 l/m 0,0 km/h O 14,8 C 18,1 C 0,0 km/h
23.08.2018 22:00 18,4 C 82 % 1010,2 hPa 0,0 l/m 0,0 km/h O-SO 15,3 C 18,4 C 0,0 km/h
23.08.2018 23:00 17,9 C 82 % 1010,7 hPa 0,0 l/m 0,0 km/h SO 14,8 C 17,9 C 0,0 km/h
24.08.2018 00:00 17,9 C 81 % 1010,8 hPa 0,0 l/m 4,5 km/h SO 14,6 C 17,9 C 2,5 km/h
24.08.2018 01:00 17,8 C 80 % 1010,6 hPa 1,0 l/m 0,0 km/h SO 14,3 C 17,8 C 0,0 km/h
24.08.2018 02:00 17,8 C 78 % 1010,0 hPa 0,0 l/m 0,0 km/h O 13,9 C 17,8 C 0,0 km/h
24.08.2018 03:00 17,9 C 76 % 1009,9 hPa 0,0 l/m 0,0 km/h O 13,6 C 17,9 C 0,0 km/h
24.08.2018 04:00 17,8 C 76 % 1009,9 hPa 0,0 l/m 0,0 km/h O-SO 13,5 C 17,8 C 0,0 km/h
24.08.2018 05:00 17,9 C 75 % 1010,3 hPa 0,0 l/m 0,0 km/h O-NO 13,4 C 17,9 C 0,0 km/h
24.08.2018 06:00 17,6 C 75 % 1010,4 hPa 0,0 l/m 0,0 km/h O-NO 13,1 C 17,6 C 0,0 km/h
24.08.2018 07:00 18,1 C 73 % 1010,8 hPa 0,0 l/m 0,0 km/h NO 13,2 C 18,1 C 0,0 km/h
24.08.2018 08:00 18,8 C 74 % 1011,0 hPa 0,0 l/m 0,0 km/h SW 14,1 C 18,8 C 0,0 km/h
24.08.2018 09:00 19,6 C 81 % 1011,2 hPa 0,0 l/m 5,8 km/h W-SW 16,2 C 19,6 C 3,2 km/h
24.08.2018 10:00 21,2 C 81 % 1011,3 hPa 0,0 l/m 14,3 km/h S-SW 17,8 C 18,9 C 7,9 km/h
24.08.2018 11:00 22,4 C 73 % 1011,2 hPa 0,0 l/m 7,8 km/h NO 17,3 C 21,9 C 4,3 km/h
24.08.2018 12:00 20,4 C 69 % 1012,3 hPa 0,0 l/m 14,9 km/h N-NO 14,5 C 17,8 C 8,3 km/h
24.08.2018 13:00 18,5 C 76 % 1012,9 hPa 0,0 l/m 0,0 km/h N 14,2 C 18,5 C 0,0 km/h
24.08.2018 14:00 18,5 C 74 % 1012,8 hPa 0,0 l/m 0,0 km/h NO 13,8 C 18,5 C 0,0 km/h
24.08.2018 15:00 17,8 C 76 % 1012,7 hPa 0,0 l/m 0,0 km/h SO 13,5 C 17,8 C 0,0 km/h
24.08.2018 16:00 16,8 C 79 % 1012,9 hPa 1,0 l/m 0,0 km/h SO 13,1 C 16,8 C 0,0 km/h
24.08.2018 17:00 17,1 C 80 % 1012,3 hPa 0,0 l/m 0,0 km/h S 13,6 C 17,1 C 0,0 km/h
24.08.2018 18:00 17,8 C 78 % 1012,0 hPa 0,0 l/m 0,0 km/h S-SO 13,9 C 17,8 C 0,0 km/h
24.08.2018 19:00 17,4 C 77 % 1012,1 hPa 0,0 l/m 0,0 km/h S-SO 13,3 C 17,4 C 0,0 km/h
24.08.2018 20:00 16,4 C 80 % 1012,5 hPa 0,0 l/m 0,0 km/h S-SO 12,9 C 16,4 C 0,0 km/h
24.08.2018 21:00 15,6 C 82 % 1013,1 hPa 0,0 l/m 0,0 km/h O-SO 12,5 C 15,6 C 0,0 km/h
24.08.2018 22:00 15,1 C 83 % 1013,1 hPa 0,0 l/m 0,0 km/h O-SO 12,2 C 15,1 C 0,0 km/h
24.08.2018 23:00 14,8 C 83 % 1013,1 hPa 0,0 l/m 0,0 km/h O-SO 11,9 C 14,8 C 0,0 km/h
25.08.2018 00:00 13,9 C 82 % 1012,9 hPa 0,0 l/m 0,0 km/h O-SO 10,9 C 13,9 C 0,0 km/h
25.08.2018 01:00 13,4 C 82 % 1012,7 hPa 0,0 l/m 0,0 km/h O-SO 10,4 C 13,4 C 0,0 km/h
25.08.2018 02:00 13,3 C 82 % 1012,2 hPa 0,0 l/m 0,0 km/h O-SO 10,3 C 13,3 C 0,0 km/h
25.08.2018 03:00 13,4 C 82 % 1011,9 hPa 0,0 l/m 0,0 km/h SO 10,4 C 13,4 C 0,0 km/h
25.08.2018 04:00 13,3 C 82 % 1011,6 hPa 0,0 l/m 0,0 km/h SO 10,3 C 13,3 C 0,0 km/h
25.08.2018 05:00 13,2 C 83 % 1011,1 hPa 0,0 l/m 0,0 km/h O 10,4 C 13,2 C 0,0 km/h
25.08.2018 06:00 13,1 C 83 % 1011,0 hPa 0,0 l/m 0,0 km/h N-NO 10,3 C 13,1 C 0,0 km/h
25.08.2018 07:00 13,9 C 83 % 1011,1 hPa 0,0 l/m 0,0 km/h N-NO 11,1 C 13,9 C 0,0 km/h
25.08.2018 08:00 14,1 C 83 % 1011,2 hPa 0,0 l/m 0,0 km/h W 11,3 C 14,1 C 0,0 km/h
25.08.2018 09:00 14,4 C 80 % 1011,9 hPa 0,0 l/m 0,0 km/h S-SW 11,0 C 14,4 C 0,0 km/h
25.08.2018 10:00 13,9 C 82 % 1012,5 hPa 0,5 l/m 0,0 km/h SO 10,9 C 13,9 C 0,0 km/h
25.08.2018 11:00 13,3 C 83 % 1012,7 hPa 1,6 l/m 0,0 km/h S 10,5 C 13,3 C 0,0 km/h
25.08.2018 12:00 13,6 C 83 % 1012,4 hPa 1,0 l/m 6,5 km/h S-SW 10,8 C 13,6 C 3,6 km/h
25.08.2018 13:00 14,0 C 83 % 1012,3 hPa 0,0 l/m 9,7 km/h SW 11,2 C 12,2 C 5,4 km/h
25.08.2018 14:00 14,2 C 82 % 1012,1 hPa 0,0 l/m 0,0 km/h SW 11,2 C 14,2 C 0,0 km/h
25.08.2018 15:00 14,0 C 83 % 1012,1 hPa 0,5 l/m 0,0 km/h S-SW 11,2 C 14,0 C 0,0 km/h
25.08.2018 16:00 13,6 C 83 % 1012,0 hPa 2,6 l/m 0,0 km/h S-SO 10,8 C 13,6 C 0,0 km/h
25.08.2018 17:00 12,8 C 83 % 1012,4 hPa 1,0 l/m 0,0 km/h SO 10,0 C 12,8 C 0,0 km/h
25.08.2018 18:00 13,3 C 83 % 1012,5 hPa 0,0 l/m 0,0 km/h SO 10,5 C 13,3 C 0,0 km/h
25.08.2018 19:00 13,3 C 83 % 1012,8 hPa 0,0 l/m 0,0 km/h SO 10,5 C 13,3 C 0,0 km/h
25.08.2018 20:00 12,9 C 83 % 1013,6 hPa 0,0 l/m 0,0 km/h SO 10,1 C 12,9 C 0,0 km/h
25.08.2018 21:00 11,9 C 83 % 1014,2 hPa 0,0 l/m 0,0 km/h SO 9,1 C 11,9 C 0,0 km/h
25.08.2018 22:00 11,2 C 82 % 1014,6 hPa 0,0 l/m 0,0 km/h SO 8,2 C 11,2 C 0,0 km/h
25.08.2018 23:00 10,3 C 81 % 1014,9 hPa 0,0 l/m 0,0 km/h O 7,2 C 10,3 C 0,0 km/h
26.08.2018 00:00 9,9 C 80 % 1015,1 hPa 0,0 l/m 0,0 km/h O 6,6 C 9,9 C 0,0 km/h
26.08.2018 01:00 9,4 C 80 % 1015,0 hPa 0,0 l/m 0,0 km/h O 6,1 C 9,4 C 0,0 km/h
26.08.2018 02:00 8,9 C 81 % 1015,1 hPa 0,0 l/m 0,0 km/h O-SO 5,8 C 8,9 C 0,0 km/h
26.08.2018 03:00 8,5 C 80 % 1015,4 hPa 0,0 l/m 0,0 km/h O-SO 5,3 C 8,5 C 0,0 km/h
26.08.2018 04:00 8,3 C 80 % 1015,3 hPa 0,0 l/m 0,0 km/h O-SO 5,1 C 8,3 C 0,0 km/h
26.08.2018 05:00 7,9 C 80 % 1015,5 hPa 0,0 l/m 0,0 km/h O-SO 4,7 C 7,9 C 0,0 km/h
26.08.2018 06:00 7,6 C 80 % 1015,9 hPa 0,0 l/m 0,0 km/h O-SO 4,4 C 7,6 C 0,0 km/h
26.08.2018 07:00 8,1 C 79 % 1016,3 hPa 0,0 l/m 0,0 km/h SO 4,7 C 8,1 C 0,0 km/h
26.08.2018 08:00 10,4 C 79 % 1016,5 hPa 0,0 l/m 0,0 km/h O 6,9 C 10,4 C 0,0 km/h
26.08.2018 09:00 12,6 C 83 % 1016,5 hPa 0,0 l/m 0,0 km/h W-SW 9,8 C 12,6 C 0,0 km/h
26.08.2018 10:00 14,8 C 81 % 1016,6 hPa 0,0 l/m 0,0 km/h NW 11,6 C 14,8 C 0,0 km/h
26.08.2018 11:00 15,9 C 72 % 1016,1 hPa 0,0 l/m 0,0 km/h NW 10,9 C 15,9 C 0,0 km/h
26.08.2018 12:00 17,6 C 57 % 1015,5 hPa 0,0 l/m 0,0 km/h N-NO 9,0 C 17,6 C 0,0 km/h
26.08.2018 13:00 18,9 C 48 % 1015,4 hPa 0,0 l/m 0,0 km/h N-NW 7,6 C 18,9 C 0,0 km/h
26.08.2018 14:00 19,6 C 47 % 1014,7 hPa 0,0 l/m 0,0 km/h W-SW 8,0 C 19,6 C 0,0 km/h
26.08.2018 15:00 20,1 C 45 % 1013,9 hPa 0,0 l/m 0,0 km/h W-NW 7,8 C 20,1 C 0,0 km/h
26.08.2018 16:00 21,3 C 44 % 1013,3 hPa 0,0 l/m 0,0 km/h W-SW 8,5 C 21,3 C 0,0 km/h
26.08.2018 17:00 21,9 C 42 % 1013,1 hPa 0,0 l/m 13,6 km/h S-SW 8,4 C 19,8 C 7,6 km/h
26.08.2018 18:00 21,9 C 43 % 1012,8 hPa 0,0 l/m 0,0 km/h W 8,7 C 21,9 C 0,0 km/h
26.08.2018 19:00 19,9 C 47 % 1013,0 hPa 0,0 l/m 0,0 km/h N 8,3 C 19,9 C 0,0 km/h
26.08.2018 20:00 16,8 C 59 % 1013,2 hPa 0,0 l/m 0,0 km/h SO 8,7 C 16,8 C 0,0 km/h
26.08.2018 21:00 15,3 C 65 % 1013,0 hPa 0,0 l/m 0,0 km/h O-SO 8,8 C 15,3 C 0,0 km/h
26.08.2018 22:00 14,8 C 69 % 1012,8 hPa 0,0 l/m 0,0 km/h O-NO 9,2 C 14,8 C 0,0 km/h
26.08.2018 23:00 14,3 C 71 % 1012,8 hPa 0,0 l/m 0,0 km/h O-SO 9,1 C 14,3 C 0,0 km/h
Min-Datum _ 26.08.18 22.08.18 23.08.18 - 20.08.18 - 26.08.18 26.08.18 20.08.18
_ Min-Zeit 06:53 18:53 18:53 - 00:53 - 06:53 06:53 00:53
Minimum _ 7,6 C 34 % 1008,4 hPa - 0,0 km/h - 4,4 C 7,6 C 0,0 km/h
Max-Datum _ 22.08.18 24.08.18 20.08.18 23.08.18 21.08.18 - 22.08.18 22.08.18 21.08.18
_ Max-Zeit 18:53 22:53 09:53 20:53 14:53 - 11:53 18:53 14:53
Maximum _ 33,6 C 83 % 1017,9 hPa 4,7 l/m 18,8 km/h
NW
- 18,5 C 33,6 C 10,4 km/h
NW
Durchschnitt _ 20,2 C 67 % 1013,7 hPa #17,1 l/m 1,5 km/h SO 13,4 C 20,1 C 0,8 km/h
www.sexauwetter.de